KIER

Natchitoches Regional Airport

Natchitoches, Louisiana, USA
METAR KIER 200855Z AUTO 00000KT 7SM SCT004 OVC009 24/24 A2993 RMK AO2 T02400235
Observed Flight Rules
Jun-20 @ 08:55 UTC (17 minutes ago) Instrument Flight Rules
Visibility Clouds
7 miles
  • Scattered at 400' AGL
  • Overcast at 900' AGL
Temperatures Readings
Current 24°C / 75°F
Dewpoint 24°C / 75°F
Humidity 100%
Altimeter 29.93" Hg
Pressure 1014 hPa
Elevation 37
METAR KIER 200855Z AUTO 00000KT 7SM SCT004 OVC009 24/24 A2993 RMK AO2 T02400235
Observed Flight Rules
Jun-20 @ 08:55 UTC
(17 minutes ago)
IFR
Clouds
  • Scattered at 400' AGL
  • Overcast at 900' AGL
Temperature Dewpoint
24°C / 75°F 24°C / 75°F
Humidity Altimeter Pressure
100% 29.93" Hg 1014 hPa